BRI weather

Bari Karol Wojtyła Airport
Bari, Apulia, Italy

Public forecast

Using degrees Celsius for public forecast. Weather courtesy of forecast.io.

Current aviation weather report (METAR) for Bari Karol Wojtyła Airport

Retrieved 2020/05/26 04:20 UTC (38 minutes ago):

LIBD 260420Z AUTO 28007KT 9999 SCT120 15/10 Q1022

Aviation forecast (TAF) for Bari Karol Wojtyła Airport

Retrieved 2020-05-26 00:00 UTC (5 hours ago):

TAF LIBD 252300Z 2600/2624 34014KT 9999 SCT040 TEMPO 2600/2612 34015G25KT TEMPO 2606/2612 SHRA